Moyer Aviation Incorporated

Pocono Mountains Airport

188 Airport Rd. Tobyhanna, PA 18466 

P: 570-839-7161
800-321-5890
F: 570-839-7162

Weather

Weather

Pocono Weather

KMPO 191953Z AUTO 09010KT 10SM FEW038 24/17 A3001 RMK AO2 SLP150 T02390167

Allentown Weather

KABE 191951Z 06012KT 10SM CLR 28/17 A2993 RMK AO2 SLP133 T02780172

Wilkes-Barre Weather

KAVP 191954Z 05009G15KT 10SM CLR 28/14 A2997 RMK AO2 SLP139 T02830144


* required field

Contact Us